Sekiu, WA

12:19 AM PDT on September 22, 2014 (GMT -0700)
Hoko | Change Station
CLOSE
Current Station
Personal Weather Station
Location: Sekiu, WA
Elevation: 56 ft
Nearby Weather Stations

Elev 56 ft 48.29 °N, 124.36 °W | Updated 15 seconds ago

Mostly Cloudy
Mostly Cloudy
57.6 °F
Feels Like 57.6 °F
N
0.0
Wind Variable Wind from NE
Gusts 0.0 mph

Today
High -- | Low -- °F
--% Chance of Precip.
Yesterday
High -- | Low -- °F
Precip. -- in
7:04 AM 7:15 PM
Waning Crescent, 4% visible
Pressure 29.93 in
Visibility 2.0 miles
Clouds Overcast 400 ft
Dew Point 57 °F
Humidity 99%
Rainfall 0.00 in
Snow Depth Not available.
UV 0 out of 12
Pollen 1.60 out of 12
Air Quality Not available.
Flu Activity Not available.
SPECI KUIL 220702Z AUTO VRB05KT 2SM -RA BR OVC004 16/15 A2993 RMK AO2 P0000 T01560150

More Conditions Fewer Conditions

Pressure 29.93 in
Visibility 2.0 miles
Clouds Overcast 400 ft
Dew Point 57 °F
Humidity 99%
Rainfall 0.00 in
Snow Depth Not available.
UV 0 out of 12
Pollen 1.60 out of 12
Air Quality Not available.
Flu Activity Not available.
SPECI KUIL 220702Z AUTO VRB05KT 2SM -RA BR OVC004 16/15 A2993 RMK AO2 P0000 T01560150

More Conditions Fewer Conditions

10-Day Weather Forecast

Almanac

Astronomy

Sep. 22, 2014 Rise Set
Actual Time 7:04 AM PDT 7:15 PM PDT
Civil Twilight 6:33 AM PDT 7:46 PM PDT
Nautical Twilight 5:56 AM PDT 8:22 PM PDT
Astronomical Twilight 5:18 AM PDT 9:00 PM PDT
Moon 5:33 AM PDT 6:28 PM PDT
Length of Visible Light 13h 13m
Length of Day
12h 10m
Tomorrow will be 3m 28s shorter.
Waning Crescent, 4% of the Moon is Illuminated
Today
Waning Crescent
Sep 24
New
Oct 1
First Quarter
Oct 8
Full
Oct 15
Last Quarter

Community

WunderPhotos

Upload Photos

1,755,392 photos uploaded!

Nearby

Snow Depth

Station Depth Elevation
Beaver Pass 0 in 3620 ft
Lost Horse 0 in 5000 ft
June Lake 0 in 3340 ft
Morse Lake 0 in 5400 ft
Rainy Pass 0 in 4780 ft

Earthquake Activity

City Distance Mag. Time & Date
No recent earthquake activity has been reported nearby.
Minimum magnitude displayed is 2.5.

Coastal Water Temperatures

Place Temperature
La Push, WA 57.9 °F
Friday Harbor, WA 52.0 °F
Westport, WA 60.1 °F

Nearby Weather Stations